createdAt,value
2018-10-17T00:02:12.908Z,14.10
2018-10-17T00:04:41.402Z,14.00
2018-10-17T00:07:10.508Z,14.00
2018-10-17T00:09:39.400Z,14.00
2018-10-17T00:12:07.834Z,13.90
2018-10-17T00:14:36.226Z,13.80
2018-10-17T00:17:05.626Z,13.80
2018-10-17T00:19:34.188Z,13.80
2018-10-17T00:22:02.629Z,13.80
2018-10-17T00:24:31.123Z,13.60
2018-10-17T00:26:59.525Z,13.50
2018-10-17T00:29:28.418Z,13.50
2018-10-17T00:31:56.879Z,13.50
2018-10-17T00:34:25.418Z,13.40
2018-10-17T00:36:53.907Z,13.40
2018-10-17T00:39:22.536Z,13.50
2018-10-17T00:41:50.979Z,13.50
2018-10-17T00:44:19.374Z,13.50
2018-10-17T00:46:47.840Z,13.40
2018-10-17T00:49:16.263Z,13.40
2018-10-17T00:51:44.819Z,13.40
2018-10-17T00:54:13.242Z,13.40
2018-10-17T00:56:41.638Z,13.40
2018-10-17T00:59:12.389Z,13.30
2018-10-17T01:01:40.981Z,13.40
2018-10-17T01:04:09.686Z,13.60
2018-10-17T01:06:38.557Z,13.60
2018-10-17T01:09:09.449Z,13.60
2018-10-17T01:11:38.385Z,13.50
2018-10-17T01:14:07.407Z,13.30
2018-10-17T01:16:35.852Z,13.10
2018-10-17T01:19:04.916Z,13.10
2018-10-17T01:21:34.288Z,13.30
2018-10-17T01:24:02.814Z,13.40
2018-10-17T01:26:31.232Z,13.20
2018-10-17T01:28:59.707Z,13.10
2018-10-17T01:31:28.293Z,13.10
2018-10-17T01:33:56.733Z,13.00
2018-10-17T01:36:25.217Z,12.80
2018-10-17T01:38:53.632Z,12.90
2018-10-17T01:41:22.065Z,12.80
2018-10-17T01:43:50.543Z,12.90
2018-10-17T01:46:19.159Z,12.80
2018-10-17T01:48:47.531Z,12.80
2018-10-17T01:51:15.981Z,12.80
2018-10-17T01:53:44.386Z,13.10
2018-10-17T01:56:12.786Z,13.20
2018-10-17T01:58:41.147Z,13.30
2018-10-17T02:01:09.599Z,13.30
2018-10-17T02:03:38.133Z,13.30
2018-10-17T02:06:07.236Z,13.30
2018-10-17T02:08:35.759Z,13.30
2018-10-17T02:11:04.623Z,13.30
2018-10-17T02:13:33.187Z,13.40
2018-10-17T02:16:01.570Z,13.50
2018-10-17T02:18:30.032Z,13.40
2018-10-17T02:20:58.480Z,13.40
2018-10-17T02:23:26.937Z,13.40
2018-10-17T02:25:55.381Z,13.50
2018-10-17T02:28:23.824Z,13.60
2018-10-17T02:30:52.228Z,13.40
2018-10-17T02:33:20.640Z,13.50
2018-10-17T02:35:49.071Z,13.40
2018-10-17T02:38:17.483Z,13.30
2018-10-17T02:40:46.036Z,13.30
2018-10-17T02:43:14.652Z,13.20
2018-10-17T02:45:43.209Z,13.20
2018-10-17T02:48:11.556Z,13.20
2018-10-17T02:50:39.973Z,13.30
2018-10-17T02:53:08.375Z,13.30
2018-10-17T02:55:36.988Z,13.30
2018-10-17T02:58:05.420Z,13.30
2018-10-17T03:00:33.770Z,13.30
2018-10-17T03:03:02.190Z,13.40
2018-10-17T03:05:30.591Z,13.40
2018-10-17T03:07:58.972Z,13.20
2018-10-17T03:10:27.369Z,13.00
2018-10-17T03:12:55.844Z,13.10
2018-10-17T03:15:24.481Z,13.10
2018-10-17T03:17:52.971Z,12.90
2018-10-17T03:20:21.398Z,12.90
2018-10-17T03:22:49.806Z,12.90
2018-10-17T03:25:18.336Z,13.00
2018-10-17T03:27:46.910Z,13.10
2018-10-17T03:30:15.440Z,13.10
2018-10-17T03:32:44.000Z,13.10
2018-10-17T03:35:12.497Z,13.10
2018-10-17T03:37:41.102Z,13.10
2018-10-17T03:40:09.526Z,13.00
2018-10-17T03:42:37.956Z,12.90
2018-10-17T03:45:07.161Z,12.80
2018-10-17T03:47:35.654Z,12.70
2018-10-17T03:50:04.435Z,12.70
2018-10-17T03:52:32.891Z,12.70
2018-10-17T03:55:01.435Z,12.70
2018-10-17T03:57:29.898Z,12.60
2018-10-17T03:59:58.373Z,12.50
2018-10-17T04:02:26.821Z,12.40
2018-10-17T04:04:55.310Z,12.50
2018-10-17T04:07:23.937Z,12.50
2018-10-17T04:09:52.363Z,12.40
2018-10-17T04:12:20.805Z,12.40
2018-10-17T04:14:49.152Z,12.30
2018-10-17T04:17:17.715Z,12.20
2018-10-17T04:19:46.225Z,12.00
2018-10-17T04:22:14.628Z,12.00
2018-10-17T04:24:43.090Z,12.00
2018-10-17T04:27:11.512Z,11.90
2018-10-17T04:29:40.141Z,11.90
2018-10-17T04:32:08.596Z,11.90
2018-10-17T04:34:36.938Z,11.90
2018-10-17T04:37:05.563Z,11.90
2018-10-17T04:39:34.137Z,11.90
2018-10-17T04:42:02.594Z,11.80
2018-10-17T04:44:30.962Z,11.80
2018-10-17T04:46:59.338Z,11.90
2018-10-17T04:49:27.924Z,11.80
2018-10-17T04:51:56.399Z,11.70
2018-10-17T04:54:24.790Z,11.80
2018-10-17T04:56:53.309Z,11.90
2018-10-17T04:59:21.703Z,11.70
2018-10-17T05:01:50.148Z,11.60
2018-10-17T05:04:18.627Z,11.60
2018-10-17T05:06:47.092Z,11.60
2018-10-17T05:09:15.667Z,11.70
2018-10-17T05:11:44.084Z,11.60
2018-10-17T05:14:12.519Z,11.60
2018-10-17T05:16:41.036Z,11.50
2018-10-17T05:19:09.444Z,11.50
2018-10-17T05:21:38.056Z,11.40
2018-10-17T05:24:06.524Z,11.40
2018-10-17T05:26:34.936Z,11.40
2018-10-17T05:29:03.444Z,11.40
2018-10-17T05:31:32.048Z,11.50
2018-10-17T05:34:00.498Z,11.40
2018-10-17T05:36:28.970Z,11.40
2018-10-17T05:38:57.413Z,11.50
2018-10-17T05:41:25.869Z,11.50
2018-10-17T05:43:54.323Z,11.40
2018-10-17T05:46:22.740Z,11.40
2018-10-17T05:48:51.161Z,11.40
2018-10-17T05:51:19.566Z,11.40
2018-10-17T05:53:47.956Z,11.40
2018-10-17T05:56:16.395Z,11.40
2018-10-17T05:58:44.850Z,11.50
2018-10-17T06:01:13.370Z,11.60
2018-10-17T06:03:41.856Z,11.50
2018-10-17T06:06:10.278Z,11.60
2018-10-17T06:08:38.718Z,11.70
2018-10-17T06:11:07.233Z,11.50
2018-10-17T06:13:35.824Z,11.50
2018-10-17T06:16:04.262Z,11.50
2018-10-17T06:18:32.675Z,11.40
2018-10-17T06:21:01.130Z,11.20
2018-10-17T06:23:29.556Z,11.20
2018-10-17T06:25:57.899Z,11.20
2018-10-17T06:28:26.381Z,11.20
2018-10-17T06:30:54.963Z,11.30
2018-10-17T06:33:23.587Z,11.40
2018-10-17T06:35:52.069Z,11.50
2018-10-17T06:38:20.569Z,11.70
2018-10-17T06:40:49.032Z,11.80
2018-10-17T06:43:17.566Z,11.90
2018-10-17T06:45:46.064Z,12.00
2018-10-17T06:48:14.475Z,12.10
2018-10-17T06:50:42.945Z,12.10
2018-10-17T06:53:11.590Z,12.20
2018-10-17T06:55:40.256Z,12.30
2018-10-17T06:58:08.620Z,12.30
2018-10-17T07:00:37.066Z,12.40
2018-10-17T07:03:05.809Z,12.50
2018-10-17T07:05:34.162Z,12.50
2018-10-17T07:08:02.619Z,12.60
2018-10-17T07:10:31.063Z,12.70
2018-10-17T07:12:59.528Z,12.70
2018-10-17T07:15:28.174Z,12.80
2018-10-17T07:17:56.688Z,12.90
2018-10-17T07:20:25.105Z,13.00
2018-10-17T07:22:53.601Z,13.10
2018-10-17T07:25:22.207Z,13.10
2018-10-17T07:27:50.584Z,13.20
2018-10-17T07:30:19.015Z,13.30
2018-10-17T07:32:47.413Z,13.40
2018-10-17T07:35:16.012Z,13.50
2018-10-17T07:37:44.371Z,13.50
2018-10-17T07:40:12.831Z,13.50
2018-10-17T07:42:41.186Z,13.60
2018-10-17T07:45:09.923Z,13.60
2018-10-17T07:47:38.425Z,13.70
2018-10-17T07:50:07.758Z,13.80
2018-10-17T07:52:36.163Z,13.90
2018-10-17T07:55:05.374Z,13.90
2018-10-17T07:57:33.768Z,13.90
2018-10-17T08:00:02.216Z,14.00
2018-10-17T08:02:30.843Z,14.10
2018-10-17T08:04:59.277Z,14.10
2018-10-17T08:07:27.646Z,14.20
2018-10-17T08:09:56.120Z,14.30
2018-10-17T08:12:24.628Z,14.40
2018-10-17T08:14:53.059Z,14.40
2018-10-17T08:17:21.547Z,14.50
2018-10-17T08:19:49.981Z,14.50
2018-10-17T08:22:18.451Z,14.50
2018-10-17T08:24:46.864Z,14.50
2018-10-17T08:27:15.376Z,14.50
2018-10-17T08:29:43.977Z,14.50
2018-10-17T08:32:12.472Z,14.50
2018-10-17T08:34:40.918Z,14.40
2018-10-17T08:37:09.694Z,14.50
2018-10-17T08:39:38.033Z,14.60
2018-10-17T08:42:06.754Z,14.80
2018-10-17T08:44:35.181Z,14.90
2018-10-17T08:47:04.005Z,15.00
2018-10-17T08:49:32.435Z,15.00
2018-10-17T08:52:00.798Z,15.20
2018-10-17T08:54:29.286Z,15.20
2018-10-17T08:56:57.749Z,15.30
2018-10-17T08:59:26.253Z,15.30
2018-10-17T09:01:54.753Z,15.40
2018-10-17T09:04:23.339Z,15.50
2018-10-17T09:06:51.851Z,15.60
2018-10-17T09:09:20.246Z,15.60
2018-10-17T09:11:48.703Z,15.70
2018-10-17T09:14:17.307Z,15.70
2018-10-17T09:16:45.942Z,15.80
2018-10-17T09:19:14.569Z,15.90
2018-10-17T09:21:44.006Z,15.90
2018-10-17T09:24:12.219Z,16.00
2018-10-17T09:26:40.806Z,16.00
2018-10-17T09:29:09.267Z,15.90
2018-10-17T09:31:37.678Z,16.20
2018-10-17T09:34:06.252Z,16.40
2018-10-17T09:36:34.900Z,16.40
2018-10-17T09:39:03.848Z,16.40
2018-10-17T09:41:32.307Z,16.40
2018-10-17T09:44:00.811Z,16.60
2018-10-17T09:46:29.229Z,16.80
2018-10-17T09:48:57.730Z,17.10
2018-10-17T09:51:26.184Z,17.20
2018-10-17T09:53:54.641Z,17.30
2018-10-17T09:56:23.214Z,17.30
2018-10-17T09:58:51.903Z,17.40
2018-10-17T10:01:25.541Z,17.40
2018-10-17T10:03:54.368Z,17.30
2018-10-17T10:06:22.923Z,17.20
2018-10-17T10:08:51.381Z,17.20
2018-10-17T10:11:19.866Z,17.20
2018-10-17T10:13:48.683Z,17.20
2018-10-17T10:16:17.115Z,17.30
2018-10-17T10:18:45.575Z,17.30
2018-10-17T10:21:14.059Z,17.30
2018-10-17T10:23:42.505Z,17.30
2018-10-17T10:26:11.113Z,17.30
2018-10-17T10:28:39.666Z,17.40
2018-10-17T10:31:08.222Z,17.40
2018-10-17T10:33:36.799Z,17.50
2018-10-17T10:36:05.565Z,17.50
2018-10-17T10:38:34.117Z,17.70
2018-10-17T10:41:02.566Z,17.70
2018-10-17T10:43:31.104Z,17.80
2018-10-17T10:45:59.563Z,17.90
2018-10-17T10:48:28.323Z,17.90
2018-10-17T10:50:56.735Z,17.90
2018-10-17T10:53:25.332Z,17.80
2018-10-17T10:55:53.844Z,17.90
2018-10-17T10:58:22.575Z,17.90
2018-10-17T11:00:51.017Z,18.00
2018-10-17T11:03:19.521Z,18.00
2018-10-17T11:05:48.203Z,18.10
2018-10-17T11:08:16.766Z,18.10
2018-10-17T11:10:45.374Z,18.00
2018-10-17T11:13:13.762Z,18.20
2018-10-17T11:15:42.206Z,18.30
2018-10-17T11:18:10.611Z,18.20
2018-10-17T11:20:39.106Z,18.20
2018-10-17T11:23:07.703Z,18.20
2018-10-17T11:25:36.263Z,18.20
2018-10-17T11:28:05.061Z,18.30
2018-10-17T11:30:33.669Z,18.40
2018-10-17T11:33:02.132Z,18.40
2018-10-17T11:35:30.795Z,18.50
2018-10-17T11:37:59.353Z,18.80
2018-10-17T11:40:27.996Z,19.10
2018-10-17T11:42:56.559Z,19.10
2018-10-17T11:45:24.990Z,19.00
2018-10-17T11:47:53.556Z,19.30
2018-10-17T11:50:22.141Z,19.40
2018-10-17T11:52:50.786Z,19.50
2018-10-17T11:55:25.674Z,19.50
2018-10-17T11:57:54.104Z,19.50
2018-10-17T12:00:22.540Z,19.50
2018-10-17T12:02:50.907Z,19.50
2018-10-17T12:05:19.515Z,19.50
2018-10-17T12:07:47.955Z,19.60
2018-10-17T12:10:16.383Z,19.60
2018-10-17T12:12:44.815Z,19.70
2018-10-17T12:15:15.363Z,19.70
2018-10-17T12:17:44.017Z,19.70
2018-10-17T12:20:14.617Z,19.80
2018-10-17T12:22:43.968Z,19.90
2018-10-17T12:25:13.640Z,20.10
2018-10-17T12:27:42.147Z,20.20
2018-10-17T12:30:15.095Z,20.30
2018-10-17T12:32:43.552Z,20.30
2018-10-17T12:35:12.690Z,20.50
2018-10-17T12:37:41.313Z,20.60
2018-10-17T12:40:10.657Z,20.60
2018-10-17T12:42:39.226Z,20.70
2018-10-17T12:45:07.992Z,20.70
2018-10-17T12:47:36.584Z,20.70
2018-10-17T12:50:06.048Z,20.80
2018-10-17T12:52:34.751Z,20.90
2018-10-17T12:55:03.555Z,20.80
2018-10-17T12:57:32.146Z,20.90
2018-10-17T13:00:00.806Z,20.80
2018-10-17T13:02:29.252Z,20.80
2018-10-17T13:04:57.787Z,20.90
2018-10-17T13:07:26.348Z,21.10
2018-10-17T13:09:54.752Z,21.20
2018-10-17T13:12:23.150Z,21.10
2018-10-17T13:14:51.638Z,21.10
2018-10-17T13:17:20.250Z,21.10
2018-10-17T13:19:48.734Z,21.30
2018-10-17T13:22:17.239Z,21.40
2018-10-17T13:24:45.749Z,21.60
2018-10-17T13:27:14.352Z,21.70
2018-10-17T13:29:42.832Z,21.80
2018-10-17T13:32:11.218Z,21.70
2018-10-17T13:34:39.993Z,21.70
2018-10-17T13:37:08.520Z,21.70
2018-10-17T13:39:37.053Z,21.70
2018-10-17T13:42:05.597Z,21.90
2018-10-17T13:44:34.273Z,21.90
2018-10-17T13:47:02.789Z,21.90
2018-10-17T13:49:31.473Z,21.90
2018-10-17T13:52:00.092Z,21.90
2018-10-17T13:54:28.637Z,21.90
2018-10-17T13:56:57.230Z,21.80
2018-10-17T13:59:26.021Z,21.70
2018-10-17T14:01:54.580Z,21.60
2018-10-17T14:04:23.011Z,21.80
2018-10-17T14:06:51.419Z,21.90
2018-10-17T14:09:19.952Z,21.90
2018-10-17T14:11:48.388Z,22.00
2018-10-17T14:14:16.872Z,21.90
2018-10-17T14:16:45.242Z,21.90
2018-10-17T14:19:13.643Z,21.90
2018-10-17T14:21:42.063Z,21.80
2018-10-17T14:24:10.532Z,21.80
2018-10-17T14:26:39.203Z,21.90
2018-10-17T14:29:07.651Z,21.80
2018-10-17T14:31:36.088Z,21.70
2018-10-17T14:34:04.788Z,21.60
2018-10-17T14:36:33.214Z,21.60
2018-10-17T14:39:04.083Z,21.60
2018-10-17T14:41:32.762Z,21.60
2018-10-17T14:44:01.159Z,21.50
2018-10-17T14:46:29.545Z,21.40
2018-10-17T14:48:58.052Z,21.50
2018-10-17T14:51:26.494Z,21.40
2018-10-17T14:53:54.918Z,21.30
2018-10-17T14:56:23.408Z,21.50
2018-10-17T14:58:51.775Z,21.40
2018-10-17T15:01:20.363Z,21.30
2018-10-17T15:03:48.823Z,21.30
2018-10-17T15:06:17.484Z,21.20
2018-10-17T15:08:46.048Z,21.10
2018-10-17T15:11:14.678Z,21.10
2018-10-17T15:13:43.306Z,21.00
2018-10-17T15:16:11.818Z,20.80
2018-10-17T15:18:40.223Z,20.80
2018-10-17T15:21:08.661Z,20.70
2018-10-17T15:23:37.296Z,20.50
2018-10-17T15:26:06.123Z,20.40
2018-10-17T15:28:34.540Z,20.40
2018-10-17T15:31:03.044Z,20.20
2018-10-17T15:33:31.502Z,20.10
2018-10-17T15:36:00.208Z,20.00
2018-10-17T15:38:28.859Z,19.90
2018-10-17T15:40:57.317Z,19.70
2018-10-17T15:43:26.024Z,19.60
2018-10-17T15:45:54.562Z,19.70
2018-10-17T15:48:22.967Z,19.50
2018-10-17T15:50:51.322Z,19.40
2018-10-17T15:53:20.079Z,19.20
2018-10-17T15:55:48.701Z,19.20
2018-10-17T15:58:17.261Z,19.10
2018-10-17T16:00:45.900Z,19.00
2018-10-17T16:03:14.470Z,18.90
2018-10-17T16:05:43.024Z,18.90
2018-10-17T16:08:11.470Z,18.80
2018-10-17T16:10:40.093Z,18.70
2018-10-17T16:13:08.700Z,18.60
2018-10-17T16:15:39.686Z,18.50
2018-10-17T16:18:10.177Z,18.40
2018-10-17T16:20:38.992Z,18.40
2018-10-17T16:23:07.851Z,18.30
2018-10-17T16:25:36.627Z,18.30
2018-10-17T16:28:05.193Z,18.20
2018-10-17T16:30:33.641Z,18.10
2018-10-17T16:33:02.229Z,18.10
2018-10-17T16:35:30.672Z,18.00
2018-10-17T16:37:59.158Z,17.90
2018-10-17T16:40:27.742Z,17.90
2018-10-17T16:42:56.214Z,17.90
2018-10-17T16:45:24.634Z,17.90
2018-10-17T16:47:53.106Z,17.80
2018-10-17T16:50:21.728Z,17.70
2018-10-17T16:52:50.248Z,17.60
2018-10-17T16:55:18.644Z,17.60
2018-10-17T16:57:47.126Z,17.60
2018-10-17T17:00:15.679Z,17.50
2018-10-17T17:02:44.179Z,17.30
2018-10-17T17:05:13.937Z,17.20
2018-10-17T17:07:42.598Z,17.20
2018-10-17T17:10:12.226Z,17.20
2018-10-17T17:12:40.712Z,17.10
2018-10-17T17:15:09.272Z,17.20
2018-10-17T17:17:37.822Z,17.20
2018-10-17T17:20:08.056Z,17.10
2018-10-17T17:22:36.579Z,17.10
2018-10-17T17:25:05.729Z,17.10
2018-10-17T17:27:34.227Z,17.00
2018-10-17T17:30:02.688Z,17.00
2018-10-17T17:32:31.240Z,17.00
2018-10-17T17:34:59.686Z,17.00
2018-10-17T17:37:28.084Z,17.10
2018-10-17T17:39:56.479Z,17.10
2018-10-17T17:42:24.866Z,17.20
2018-10-17T17:44:53.335Z,17.20
2018-10-17T17:47:21.861Z,17.30
2018-10-17T17:49:50.326Z,17.30
2018-10-17T17:52:18.830Z,17.30
2018-10-17T17:54:47.427Z,17.30
2018-10-17T17:57:15.799Z,17.30
2018-10-17T17:59:44.196Z,17.20
2018-10-17T18:02:12.677Z,17.20
2018-10-17T18:04:41.143Z,17.20
2018-10-17T18:07:09.606Z,17.20
2018-10-17T18:09:38.000Z,17.20
2018-10-17T18:12:06.712Z,17.20
2018-10-17T18:14:35.216Z,17.20
2018-10-17T18:17:03.734Z,17.20
2018-10-17T18:19:32.454Z,17.10
2018-10-17T18:22:01.003Z,17.10
2018-10-17T18:24:29.545Z,17.10
2018-10-17T18:26:58.329Z,17.10
2018-10-17T18:29:26.833Z,17.10
2018-10-17T18:31:55.393Z,17.00
2018-10-17T18:34:23.805Z,16.90
2018-10-17T18:36:52.257Z,16.90
2018-10-17T18:39:20.645Z,16.90
2018-10-17T18:41:49.175Z,17.00
2018-10-17T18:44:17.601Z,16.90
2018-10-17T18:46:46.076Z,16.90
2018-10-17T18:49:14.519Z,17.00
2018-10-17T18:51:43.168Z,17.00
2018-10-17T18:54:11.598Z,17.00
2018-10-17T18:56:40.047Z,17.00
2018-10-17T18:59:08.473Z,17.00
2018-10-17T19:01:36.907Z,17.00
2018-10-17T19:04:06.080Z,16.90
2018-10-17T19:06:34.450Z,16.90
2018-10-17T19:09:03.042Z,16.80
2018-10-17T19:11:31.667Z,16.80
2018-10-17T19:14:00.175Z,16.70
2018-10-17T19:16:28.617Z,16.70
2018-10-17T19:18:56.991Z,16.70
2018-10-17T19:21:25.844Z,16.60
2018-10-17T19:23:54.221Z,16.60
2018-10-17T19:26:22.700Z,16.50
2018-10-17T19:28:51.104Z,16.50
2018-10-17T19:31:19.561Z,16.60
2018-10-17T19:33:47.998Z,16.60
2018-10-17T19:36:16.464Z,16.50
2018-10-17T19:38:44.871Z,16.40
2018-10-17T19:41:13.329Z,16.40
2018-10-17T19:43:41.796Z,16.30
2018-10-17T19:46:10.410Z,16.20
2018-10-17T19:48:38.830Z,16.10
2018-10-17T19:51:07.265Z,16.00
2018-10-17T19:53:35.897Z,15.90
2018-10-17T19:56:04.452Z,15.80
2018-10-17T19:58:33.057Z,15.70
2018-10-17T20:01:01.481Z,15.60
2018-10-17T20:03:30.144Z,15.50
2018-10-17T20:05:58.594Z,15.40
2018-10-17T20:08:27.010Z,15.40
2018-10-17T20:10:55.480Z,15.50
2018-10-17T20:13:23.887Z,15.50
2018-10-17T20:15:52.520Z,15.70
2018-10-17T20:18:20.986Z,15.70
2018-10-17T20:20:49.459Z,15.70
2018-10-17T20:23:17.796Z,15.70
2018-10-17T20:25:46.216Z,15.70
2018-10-17T20:28:14.693Z,15.80
2018-10-17T20:30:43.210Z,15.80
2018-10-17T20:33:11.874Z,15.80
2018-10-17T20:35:40.389Z,15.70
2018-10-17T20:38:08.836Z,15.70
2018-10-17T20:40:37.271Z,15.60
2018-10-17T20:43:05.749Z,15.50
2018-10-17T20:45:34.463Z,15.40
2018-10-17T20:48:02.890Z,15.50
2018-10-17T20:50:31.335Z,15.40
2018-10-17T20:52:59.777Z,15.40
2018-10-17T20:55:28.296Z,15.50
2018-10-17T20:57:56.768Z,15.40
2018-10-17T21:00:25.372Z,15.40
2018-10-17T21:02:53.756Z,15.40
2018-10-17T21:05:22.176Z,15.20
2018-10-17T21:07:50.656Z,15.20
2018-10-17T21:10:19.142Z,15.00
2018-10-17T21:12:47.589Z,15.00
2018-10-17T21:15:16.016Z,15.00
2018-10-17T21:17:44.482Z,15.00
2018-10-17T21:20:13.047Z,14.90
2018-10-17T21:22:41.553Z,14.90
2018-10-17T21:25:09.961Z,14.80
2018-10-17T21:27:38.629Z,14.80
2018-10-17T21:30:08.280Z,14.50
2018-10-17T21:32:36.706Z,14.50
2018-10-17T21:35:05.938Z,14.40
2018-10-17T21:37:34.390Z,14.30
2018-10-17T21:40:03.068Z,14.30
2018-10-17T21:42:31.478Z,14.40
2018-10-17T21:44:59.871Z,14.40
2018-10-17T21:47:28.495Z,14.40
2018-10-17T21:49:57.111Z,14.40
2018-10-17T21:52:25.660Z,14.40
2018-10-17T21:54:54.122Z,14.50
2018-10-17T21:57:22.489Z,14.40
2018-10-17T21:59:50.899Z,14.30
2018-10-17T22:02:19.720Z,14.20
2018-10-17T22:04:48.165Z,14.10
2018-10-17T22:07:16.591Z,14.10
2018-10-17T22:09:45.095Z,13.90
2018-10-17T22:15:05.212Z,14.00
2018-10-17T22:17:33.652Z,13.90
2018-10-17T22:20:02.221Z,13.80
2018-10-17T22:22:30.724Z,13.60
2018-10-17T22:24:59.150Z,13.50
2018-10-17T22:27:27.506Z,13.40
2018-10-17T22:29:56.037Z,13.40
2018-10-17T22:32:24.646Z,13.30
2018-10-17T22:34:52.983Z,13.40
2018-10-17T22:37:21.424Z,13.50
2018-10-17T22:39:49.849Z,13.60
2018-10-17T22:42:18.324Z,13.70
2018-10-17T22:44:46.841Z,13.60
2018-10-17T22:47:15.189Z,13.70
2018-10-17T22:49:43.631Z,13.60
2018-10-17T22:52:12.122Z,13.50
2018-10-17T22:54:40.544Z,13.40
2018-10-17T22:57:08.960Z,13.40
2018-10-17T22:59:37.448Z,13.30
2018-10-17T23:02:05.890Z,13.40
2018-10-17T23:04:34.487Z,13.50
2018-10-17T23:07:02.910Z,13.50
2018-10-17T23:09:31.336Z,13.50
2018-10-17T23:11:59.762Z,13.60
2018-10-17T23:14:28.191Z,13.50
2018-10-17T23:16:56.534Z,13.60
2018-10-17T23:19:24.967Z,13.50
2018-10-17T23:21:53.330Z,13.50
2018-10-17T23:24:21.915Z,13.50
2018-10-17T23:26:50.376Z,13.50
2018-10-17T23:29:18.889Z,13.60
2018-10-17T23:31:47.328Z,13.60
2018-10-17T23:34:15.718Z,13.60
2018-10-17T23:36:44.193Z,13.40
2018-10-17T23:39:18.582Z,13.40
2018-10-17T23:41:47.051Z,13.40
2018-10-17T23:44:15.509Z,13.50
2018-10-17T23:46:44.125Z,13.40
2018-10-17T23:49:12.466Z,13.30
2018-10-17T23:51:40.900Z,13.20
2018-10-17T23:54:09.353Z,13.40
2018-10-17T23:56:37.859Z,13.30
2018-10-17T23:59:06.664Z,13.30
